Terminal Aerodrome Forecast
Issued by NWS Boston, MA

Home | Current Version | Previous Version | Text Only | Print | Product List | Glossary On
Versions: 1 2 3 4 5 6 7 8 9 10 11 12 13 14 15 16 17 18 19 20 21 22
000
FTUS41 KBOX 300547
TAFPVD
TAF
KPVD 300547Z 3006/3106 VRB03KT 3SM SHRA BR OVC004
     FM301600 17004KT 2SM -SHRA BR OVC008
     FM301900 20008KT P6SM VCSH OVC010
     FM302100 22012G20KT P6SM OVC010
     FM310100 22009KT P6SM VCSH OVC010
     FM310300 22007KT P6SM VCSH OVC100=

USA.gov is the U.S. government's official web portal to all federal, state and local government web resources and services.